TimeMDT,TemperatureF,Dew PointF,Humidity,Sea Level PressureIn,VisibilityMPH,Wind Direction,Wind SpeedMPH,Gust SpeedMPH,PrecipitationIn,Events,Conditions,WindDirDegrees,DateUTC
12:53 AM,59.0,46.9,64,30.00,10.0,Calm,Calm,-,N/A,,Clear,0,2013-06-30 06:53:00
1:53 AM,59.0,48.0,67,30.01,10.0,NNW,5.8,-,N/A,,Clear,340,2013-06-30 07:53:00
2:53 AM,57.0,46.9,69,30.04,10.0,Calm,Calm,-,N/A,,Clear,0,2013-06-30 08:53:00
3:53 AM,55.0,46.0,72,30.06,10.0,ENE,4.6,-,N/A,,Clear,60,2013-06-30 09:53:00
4:53 AM,55.0,44.1,67,30.06,10.0,North,13.8,-,N/A,,Clear,10,2013-06-30 10:53:00
5:53 AM,54.0,44.1,69,30.06,10.0,North,3.5,-,N/A,,Clear,10,2013-06-30 11:53:00
6:53 AM,55.9,44.1,64,30.06,10.0,Calm,Calm,-,N/A,,Clear,0,2013-06-30 12:53:00
7:53 AM,63.0,46.0,54,30.05,10.0,Calm,Calm,-,N/A,,Clear,0,2013-06-30 13:53:00
8:53 AM,70.0,44.1,39,30.06,10.0,ENE,4.6,-,N/A,,Clear,60,2013-06-30 14:53:00
9:53 AM,75.9,44.1,32,30.01,10.0,Calm,Calm,-,N/A,,Clear,0,2013-06-30 15:53:00
10:53 AM,79.0,43.0,28,29.99,10.0,Variable,3.5,-,N/A,,Clear,0,2013-06-30 16:53:00
11:53 AM,84.0,43.0,24,29.95,10.0,WSW,9.2,-,N/A,,Clear,240,2013-06-30 17:53:00
12:53 PM,87.1,43.0,21,29.93,10.0,Variable,6.9,-,N/A,,Clear,0,2013-06-30 18:53:00
1:53 PM,84.9,41.0,21,29.90,10.0,WSW,9.2,25.3,N/A,,Clear,240,2013-06-30 19:53:00
2:27 PM,86.0,39.2,19,30.17,10.0,WNW,6.9,20.7,N/A,Thunderstorm,Clear,290,2013-06-30 20:27:00
2:53 PM,84.0,39.9,21,29.90,10.0,West,13.8,23.0,N/A,,Scattered Clouds,280,2013-06-30 20:53:00
3:23 PM,78.8,41.0,26,30.20,10.0,NNW,17.3,26.5,N/A,Thunderstorm,Mostly Cloudy,330,2013-06-30 21:23:00
3:38 PM,78.8,41.0,26,30.18,10.0,West,10.4,26.5,0.00,Rain,Light Rain,270,2013-06-30 21:38:00
3:48 PM,80.6,37.4,21,30.18,10.0,WSW,15.0,27.6,0.00,Thunderstorm,Overcast,250,2013-06-30 21:48:00
3:53 PM,81.0,35.1,19,29.92,10.0,SW,16.1,27.6,0.00,Thunderstorm,Overcast,220,2013-06-30 21:53:00
4:00 PM,80.6,33.8,18,30.17,10.0,Variable,5.8,24.2,N/A,Thunderstorm,Mostly Cloudy,0,2013-06-30 22:00:00
4:20 PM,75.2,44.6,34,30.18,10.0,West,17.3,24.2,N/A,,Partly Cloudy,280,2013-06-30 22:20:00
4:53 PM,75.9,45.0,33,29.93,10.0,West,5.8,-,N/A,,Clear,270,2013-06-30 22:53:00
5:53 PM,81.0,46.0,29,29.88,10.0,West,6.9,-,N/A,,Clear,260,2013-06-30 23:53:00
6:53 PM,82.9,41.0,23,29.85,10.0,West,9.2,-,N/A,,Clear,280,2013-07-01 00:53:00
7:53 PM,79.0,44.1,29,29.89,10.0,ESE,16.1,20.7,N/A,,Clear,120,2013-07-01 01:53:00
8:53 PM,69.1,46.9,45,29.95,10.0,East,12.7,20.7,N/A,,Clear,100,2013-07-01 02:53:00
9:53 PM,66.9,45.0,45,29.97,10.0,East,11.5,23.0,N/A,,Clear,100,2013-07-01 03:53:00
10:53 PM,64.9,45.0,48,29.98,10.0,East,10.4,-,N/A,,Clear,80,2013-07-01 04:53:00
11:53 PM,60.1,43.0,53,29.99,10.0,ENE,3.5,-,N/A,,Clear,70,2013-07-01 05:53:00